sensor_id;sensor_type;location;lat;lon;timestamp;temperature;humidity
3190;DHT22;1606;51.946;10.558;2022-10-13T00:00:37;11.30;99.90
3190;DHT22;1606;51.946;10.558;2022-10-13T00:03:05;11.20;99.90
3190;DHT22;1606;51.946;10.558;2022-10-13T00:05:33;11.30;99.90
3190;DHT22;1606;51.946;10.558;2022-10-13T00:08:01;11.30;99.90
3190;DHT22;1606;51.946;10.558;2022-10-13T00:10:30;11.30;99.90
3190;DHT22;1606;51.946;10.558;2022-10-13T00:12:58;11.40;99.90
3190;DHT22;1606;51.946;10.558;2022-10-13T00:15:26;11.40;99.90
3190;DHT22;1606;51.946;10.558;2022-10-13T00:17:54;11.50;99.90
3190;DHT22;1606;51.946;10.558;2022-10-13T00:20:22;11.40;99.90
3190;DHT22;1606;51.946;10.558;2022-10-13T00:22:49;11.30;99.90
3190;DHT22;1606;51.946;10.558;2022-10-13T00:25:17;11.40;99.90
3190;DHT22;1606;51.946;10.558;2022-10-13T00:27:46;11.30;99.90
3190;DHT22;1606;51.946;10.558;2022-10-13T00:30:14;11.40;99.90
3190;DHT22;1606;51.946;10.558;2022-10-13T00:32:42;11.50;99.90
3190;DHT22;1606;51.946;10.558;2022-10-13T00:35:10;11.40;99.90
3190;DHT22;1606;51.946;10.558;2022-10-13T00:37:38;11.40;99.90
3190;DHT22;1606;51.946;10.558;2022-10-13T00:40:06;11.40;99.90
3190;DHT22;1606;51.946;10.558;2022-10-13T00:42:34;11.50;99.90
3190;DHT22;1606;51.946;10.558;2022-10-13T00:45:19;11.60;99.90
3190;DHT22;1606;51.946;10.558;2022-10-13T00:47:51;11.50;99.90
3190;DHT22;1606;51.946;10.558;2022-10-13T00:50:22;11.50;99.90
3190;DHT22;1606;51.946;10.558;2022-10-13T00:52:52;11.60;99.90
3190;DHT22;1606;51.946;10.558;2022-10-13T00:55:22;11.70;99.90
3190;DHT22;1606;51.946;10.558;2022-10-13T00:57:51;11.70;99.90
3190;DHT22;1606;51.946;10.558;2022-10-13T01:00:22;11.80;99.90
3190;DHT22;1606;51.946;10.558;2022-10-13T01:02:51;11.70;99.90
3190;DHT22;1606;51.946;10.558;2022-10-13T01:05:20;11.60;99.90
3190;DHT22;1606;51.946;10.558;2022-10-13T01:07:48;11.50;99.90
3190;DHT22;1606;51.946;10.558;2022-10-13T01:10:21;11.50;99.90
3190;DHT22;1606;51.946;10.558;2022-10-13T01:12:59;11.50;99.90
3190;DHT22;1606;51.946;10.558;2022-10-13T01:15:36;11.50;99.90
3190;DHT22;1606;51.946;10.558;2022-10-13T01:18:13;11.60;99.90
3190;DHT22;1606;51.946;10.558;2022-10-13T01:21:21;11.70;99.90
3190;DHT22;1606;51.946;10.558;2022-10-13T01:27:07;11.80;99.90
3190;DHT22;1606;51.946;10.558;2022-10-13T01:33:06;11.60;99.90
3190;DHT22;1606;51.946;10.558;2022-10-13T01:35:51;11.70;99.90
3190;DHT22;1606;51.946;10.558;2022-10-13T01:38:28;11.70;99.90
3190;DHT22;1606;51.946;10.558;2022-10-13T01:41:01;11.70;99.90
3190;DHT22;1606;51.946;10.558;2022-10-13T01:43:34;11.80;99.90
3190;DHT22;1606;51.946;10.558;2022-10-13T01:46:08;11.90;99.90
3190;DHT22;1606;51.946;10.558;2022-10-13T01:48:38;11.90;99.90
3190;DHT22;1606;51.946;10.558;2022-10-13T01:51:09;11.80;99.90
3190;DHT22;1606;51.946;10.558;2022-10-13T01:53:39;11.80;99.90
3190;DHT22;1606;51.946;10.558;2022-10-13T01:56:07;11.60;99.90
3190;DHT22;1606;51.946;10.558;2022-10-13T01:58:36;11.50;99.90
3190;DHT22;1606;51.946;10.558;2022-10-13T02:01:26;11.50;99.90
3190;DHT22;1606;51.946;10.558;2022-10-13T02:04:08;11.60;99.90
3190;DHT22;1606;51.946;10.558;2022-10-13T02:06:40;11.60;99.90
3190;DHT22;1606;51.946;10.558;2022-10-13T02:09:14;11.70;99.90
3190;DHT22;1606;51.946;10.558;2022-10-13T02:11:48;11.70;99.90
3190;DHT22;1606;51.946;10.558;2022-10-13T02:14:23;11.60;99.90
3190;DHT22;1606;51.946;10.558;2022-10-13T02:16:55;11.60;99.90
3190;DHT22;1606;51.946;10.558;2022-10-13T02:19:26;11.70;99.90
3190;DHT22;1606;51.946;10.558;2022-10-13T02:21:56;11.60;99.90
3190;DHT22;1606;51.946;10.558;2022-10-13T02:24:24;11.80;99.90
3190;DHT22;1606;51.946;10.558;2022-10-13T02:26:52;11.80;99.90
3190;DHT22;1606;51.946;10.558;2022-10-13T02:29:20;11.70;99.90
3190;DHT22;1606;51.946;10.558;2022-10-13T02:31:48;11.60;99.90
3190;DHT22;1606;51.946;10.558;2022-10-13T02:34:17;11.40;99.90
3190;DHT22;1606;51.946;10.558;2022-10-13T02:36:46;11.40;99.90
3190;DHT22;1606;51.946;10.558;2022-10-13T02:39:14;11.30;99.90
3190;DHT22;1606;51.946;10.558;2022-10-13T02:41:43;11.40;99.90
3190;DHT22;1606;51.946;10.558;2022-10-13T02:44:11;11.30;99.90
3190;DHT22;1606;51.946;10.558;2022-10-13T02:46:38;11.40;99.90
3190;DHT22;1606;51.946;10.558;2022-10-13T02:49:06;11.40;99.90
3190;DHT22;1606;51.946;10.558;2022-10-13T02:51:35;11.40;99.90
3190;DHT22;1606;51.946;10.558;2022-10-13T02:54:06;11.30;99.90
3190;DHT22;1606;51.946;10.558;2022-10-13T02:56:34;11.20;99.90
3190;DHT22;1606;51.946;10.558;2022-10-13T02:59:02;11.30;99.90
3190;DHT22;1606;51.946;10.558;2022-10-13T03:01:29;11.50;99.90
3190;DHT22;1606;51.946;10.558;2022-10-13T03:03:58;11.60;99.90
3190;DHT22;1606;51.946;10.558;2022-10-13T03:06:26;11.60;99.90
3190;DHT22;1606;51.946;10.558;2022-10-13T03:08:55;11.50;99.90
3190;DHT22;1606;51.946;10.558;2022-10-13T03:11:23;11.50;99.90
3190;DHT22;1606;51.946;10.558;2022-10-13T03:13:51;11.50;99.90
3190;DHT22;1606;51.946;10.558;2022-10-13T03:16:19;11.50;99.90
3190;DHT22;1606;51.946;10.558;2022-10-13T03:18:46;11.50;99.90
3190;DHT22;1606;51.946;10.558;2022-10-13T03:21:14;11.60;99.90
3190;DHT22;1606;51.946;10.558;2022-10-13T03:23:42;11.70;99.90
3190;DHT22;1606;51.946;10.558;2022-10-13T03:26:11;11.70;99.90
3190;DHT22;1606;51.946;10.558;2022-10-13T03:28:39;11.70;99.90
3190;DHT22;1606;51.946;10.558;2022-10-13T03:31:09;11.70;99.90
3190;DHT22;1606;51.946;10.558;2022-10-13T03:33:39;11.70;99.90
3190;DHT22;1606;51.946;10.558;2022-10-13T03:36:07;11.80;99.90
3190;DHT22;1606;51.946;10.558;2022-10-13T03:38:35;11.80;99.90
3190;DHT22;1606;51.946;10.558;2022-10-13T03:41:07;11.70;99.90
3190;DHT22;1606;51.946;10.558;2022-10-13T03:43:37;11.60;99.90
3190;DHT22;1606;51.946;10.558;2022-10-13T03:46:06;11.70;99.90
3190;DHT22;1606;51.946;10.558;2022-10-13T03:48:35;11.60;99.90
3190;DHT22;1606;51.946;10.558;2022-10-13T03:51:04;11.70;99.90
3190;DHT22;1606;51.946;10.558;2022-10-13T03:53:33;11.80;99.90
3190;DHT22;1606;51.946;10.558;2022-10-13T03:56:02;11.70;99.90
3190;DHT22;1606;51.946;10.558;2022-10-13T03:58:30;11.70;99.90
3190;DHT22;1606;51.946;10.558;2022-10-13T04:01:04;11.70;99.90
3190;DHT22;1606;51.946;10.558;2022-10-13T04:03:33;11.70;99.90
3190;DHT22;1606;51.946;10.558;2022-10-13T04:06:01;11.70;99.90
3190;DHT22;1606;51.946;10.558;2022-10-13T04:08:30;11.70;99.90
3190;DHT22;1606;51.946;10.558;2022-10-13T04:10:58;11.60;99.90
3190;DHT22;1606;51.946;10.558;2022-10-13T04:13:26;11.70;99.90
3190;DHT22;1606;51.946;10.558;2022-10-13T04:15:54;11.70;99.90
3190;DHT22;1606;51.946;10.558;2022-10-13T04:18:23;11.70;99.90
3190;DHT22;1606;51.946;10.558;2022-10-13T04:20:51;11.70;99.90
3190;DHT22;1606;51.946;10.558;2022-10-13T04:23:19;11.70;99.90
3190;DHT22;1606;51.946;10.558;2022-10-13T04:25:49;11.80;99.90
3190;DHT22;1606;51.946;10.558;2022-10-13T04:28:17;11.80;99.90
3190;DHT22;1606;51.946;10.558;2022-10-13T04:30:45;11.80;99.90
3190;DHT22;1606;51.946;10.558;2022-10-13T04:33:15;11.90;99.90
3190;DHT22;1606;51.946;10.558;2022-10-13T04:35:44;12.00;99.90
3190;DHT22;1606;51.946;10.558;2022-10-13T04:38:12;12.10;99.90
3190;DHT22;1606;51.946;10.558;2022-10-13T04:40:40;12.00;99.90
3190;DHT22;1606;51.946;10.558;2022-10-13T04:43:08;12.00;99.90
3190;DHT22;1606;51.946;10.558;2022-10-13T04:45:35;12.00;99.90
3190;DHT22;1606;51.946;10.558;2022-10-13T04:48:03;12.00;99.90
3190;DHT22;1606;51.946;10.558;2022-10-13T04:50:31;12.00;99.90
3190;DHT22;1606;51.946;10.558;2022-10-13T04:53:01;12.00;99.90
3190;DHT22;1606;51.946;10.558;2022-10-13T04:55:28;12.00;99.90
3190;DHT22;1606;51.946;10.558;2022-10-13T04:57:56;12.10;99.90
3190;DHT22;1606;51.946;10.558;2022-10-13T05:00:24;12.00;99.90
3190;DHT22;1606;51.946;10.558;2022-10-13T05:02:52;11.90;99.90
3190;DHT22;1606;51.946;10.558;2022-10-13T05:05:20;11.90;99.90
3190;DHT22;1606;51.946;10.558;2022-10-13T05:07:47;11.90;99.90
3190;DHT22;1606;51.946;10.558;2022-10-13T05:10:17;11.90;99.90
3190;DHT22;1606;51.946;10.558;2022-10-13T05:12:44;11.80;99.90
3190;DHT22;1606;51.946;10.558;2022-10-13T05:15:12;11.90;99.90
3190;DHT22;1606;51.946;10.558;2022-10-13T05:17:40;12.00;99.90
3190;DHT22;1606;51.946;10.558;2022-10-13T05:20:09;12.00;99.90
3190;DHT22;1606;51.946;10.558;2022-10-13T05:22:37;11.90;99.90
3190;DHT22;1606;51.946;10.558;2022-10-13T05:25:05;12.00;99.90
3190;DHT22;1606;51.946;10.558;2022-10-13T05:27:34;12.00;99.90
3190;DHT22;1606;51.946;10.558;2022-10-13T05:30:02;12.00;99.90
3190;DHT22;1606;51.946;10.558;2022-10-13T05:32:30;12.00;99.90
3190;DHT22;1606;51.946;10.558;2022-10-13T05:34:58;12.00;99.90
3190;DHT22;1606;51.946;10.558;2022-10-13T05:37:26;12.00;99.90
3190;DHT22;1606;51.946;10.558;2022-10-13T05:39:53;11.90;99.90
3190;DHT22;1606;51.946;10.558;2022-10-13T05:42:21;12.00;99.90
3190;DHT22;1606;51.946;10.558;2022-10-13T05:44:50;11.90;99.90
3190;DHT22;1606;51.946;10.558;2022-10-13T05:47:18;11.90;99.90
3190;DHT22;1606;51.946;10.558;2022-10-13T05:49:48;11.90;99.90
3190;DHT22;1606;51.946;10.558;2022-10-13T05:52:16;11.90;99.90
3190;DHT22;1606;51.946;10.558;2022-10-13T05:54:47;11.80;99.90
3190;DHT22;1606;51.946;10.558;2022-10-13T05:57:17;11.70;99.90
3190;DHT22;1606;51.946;10.558;2022-10-13T05:59:49;11.70;99.90
3190;DHT22;1606;51.946;10.558;2022-10-13T06:02:21;11.70;99.90
3190;DHT22;1606;51.946;10.558;2022-10-13T06:04:52;11.80;99.90
3190;DHT22;1606;51.946;10.558;2022-10-13T06:07:21;11.80;99.90
3190;DHT22;1606;51.946;10.558;2022-10-13T06:09:49;11.80;99.90
3190;DHT22;1606;51.946;10.558;2022-10-13T06:12:17;11.80;99.90
3190;DHT22;1606;51.946;10.558;2022-10-13T06:14:45;11.90;99.90
3190;DHT22;1606;51.946;10.558;2022-10-13T06:17:13;11.90;99.90
3190;DHT22;1606;51.946;10.558;2022-10-13T06:19:42;11.90;99.90
3190;DHT22;1606;51.946;10.558;2022-10-13T06:22:10;11.90;99.90
3190;DHT22;1606;51.946;10.558;2022-10-13T06:24:38;11.80;99.90
3190;DHT22;1606;51.946;10.558;2022-10-13T06:27:06;11.90;99.90
3190;DHT22;1606;51.946;10.558;2022-10-13T06:29:34;11.90;99.90
3190;DHT22;1606;51.946;10.558;2022-10-13T06:32:03;11.90;99.90
3190;DHT22;1606;51.946;10.558;2022-10-13T06:34:31;11.80;99.90
3190;DHT22;1606;51.946;10.558;2022-10-13T06:37:00;11.90;99.90
3190;DHT22;1606;51.946;10.558;2022-10-13T06:39:28;11.90;99.90
3190;DHT22;1606;51.946;10.558;2022-10-13T06:41:56;11.90;99.90
3190;DHT22;1606;51.946;10.558;2022-10-13T06:44:24;11.80;99.90
3190;DHT22;1606;51.946;10.558;2022-10-13T06:46:52;11.90;99.90
3190;DHT22;1606;51.946;10.558;2022-10-13T06:49:19;11.70;99.90
3190;DHT22;1606;51.946;10.558;2022-10-13T06:51:49;11.70;99.90
3190;DHT22;1606;51.946;10.558;2022-10-13T06:54:19;11.70;99.90
3190;DHT22;1606;51.946;10.558;2022-10-13T06:56:47;11.80;99.90
3190;DHT22;1606;51.946;10.558;2022-10-13T06:59:15;11.90;99.90
3190;DHT22;1606;51.946;10.558;2022-10-13T07:01:43;12.00;99.90
3190;DHT22;1606;51.946;10.558;2022-10-13T07:04:11;12.10;99.90
3190;DHT22;1606;51.946;10.558;2022-10-13T07:06:40;12.30;99.90
3190;DHT22;1606;51.946;10.558;2022-10-13T07:09:10;12.40;99.90
3190;DHT22;1606;51.946;10.558;2022-10-13T07:11:42;12.60;99.90
3190;DHT22;1606;51.946;10.558;2022-10-13T07:14:11;12.60;99.90
3190;DHT22;1606;51.946;10.558;2022-10-13T07:16:39;12.70;99.90
3190;DHT22;1606;51.946;10.558;2022-10-13T07:19:07;12.70;99.90
3190;DHT22;1606;51.946;10.558;2022-10-13T07:21:35;12.90;99.90
3190;DHT22;1606;51.946;10.558;2022-10-13T07:24:03;13.00;99.90
3190;DHT22;1606;51.946;10.558;2022-10-13T07:26:33;13.30;99.90
3190;DHT22;1606;51.946;10.558;2022-10-13T07:29:03;13.40;99.90
3190;DHT22;1606;51.946;10.558;2022-10-13T07:31:31;13.40;99.90
3190;DHT22;1606;51.946;10.558;2022-10-13T07:33:59;13.70;99.90
3190;DHT22;1606;51.946;10.558;2022-10-13T07:36:27;13.90;99.90
3190;DHT22;1606;51.946;10.558;2022-10-13T07:38:55;13.90;99.90
3190;DHT22;1606;51.946;10.558;2022-10-13T07:41:23;14.10;99.90
3190;DHT22;1606;51.946;10.558;2022-10-13T07:43:53;14.30;99.90
3190;DHT22;1606;51.946;10.558;2022-10-13T07:46:23;14.40;99.90
3190;DHT22;1606;51.946;10.558;2022-10-13T07:48:51;14.70;99.90
3190;DHT22;1606;51.946;10.558;2022-10-13T07:51:21;14.80;99.90
3190;DHT22;1606;51.946;10.558;2022-10-13T07:53:49;14.90;99.90
3190;DHT22;1606;51.946;10.558;2022-10-13T07:56:17;15.10;99.90
3190;DHT22;1606;51.946;10.558;2022-10-13T07:58:46;15.10;99.90
3190;DHT22;1606;51.946;10.558;2022-10-13T08:01:14;15.30;99.90
3190;DHT22;1606;51.946;10.558;2022-10-13T08:03:45;15.40;99.90
3190;DHT22;1606;51.946;10.558;2022-10-13T08:06:16;15.50;99.90
3190;DHT22;1606;51.946;10.558;2022-10-13T08:08:44;15.60;99.90
3190;DHT22;1606;51.946;10.558;2022-10-13T08:11:13;15.60;99.90
3190;DHT22;1606;51.946;10.558;2022-10-13T08:13:46;15.70;99.90
3190;DHT22;1606;51.946;10.558;2022-10-13T08:16:14;15.60;99.90
3190;DHT22;1606;51.946;10.558;2022-10-13T08:18:43;15.50;99.90
3190;DHT22;1606;51.946;10.558;2022-10-13T08:21:14;15.40;99.90
3190;DHT22;1606;51.946;10.558;2022-10-13T08:24:03;15.50;99.90
3190;DHT22;1606;51.946;10.558;2022-10-13T08:26:31;15.50;99.90
3190;DHT22;1606;51.946;10.558;2022-10-13T08:28:59;15.60;99.90
3190;DHT22;1606;51.946;10.558;2022-10-13T08:31:47;15.80;99.90
3190;DHT22;1606;51.946;10.558;2022-10-13T08:34:22;15.70;99.90
3190;DHT22;1606;51.946;10.558;2022-10-13T08:36:50;15.80;99.90
3190;DHT22;1606;51.946;10.558;2022-10-13T08:39:21;16.00;99.90
3190;DHT22;1606;51.946;10.558;2022-10-13T08:41:50;16.10;99.90
3190;DHT22;1606;51.946;10.558;2022-10-13T08:44:25;16.00;99.90
3190;DHT22;1606;51.946;10.558;2022-10-13T08:47:27;16.00;99.90
3190;DHT22;1606;51.946;10.558;2022-10-13T08:50:01;16.10;99.90
3190;DHT22;1606;51.946;10.558;2022-10-13T08:52:44;16.30;99.90
3190;DHT22;1606;51.946;10.558;2022-10-13T08:55:19;16.60;99.90
3190;DHT22;1606;51.946;10.558;2022-10-13T08:57:49;16.60;99.90
3190;DHT22;1606;51.946;10.558;2022-10-13T09:00:17;16.80;99.90
3190;DHT22;1606;51.946;10.558;2022-10-13T09:02:45;16.80;99.90
3190;DHT22;1606;51.946;10.558;2022-10-13T09:05:21;16.90;99.90
3190;DHT22;1606;51.946;10.558;2022-10-13T09:07:54;17.10;99.90
3190;DHT22;1606;51.946;10.558;2022-10-13T09:10:23;17.20;99.90
3190;DHT22;1606;51.946;10.558;2022-10-13T09:12:50;17.20;99.90
3190;DHT22;1606;51.946;10.558;2022-10-13T09:15:18;17.30;99.90
3190;DHT22;1606;51.946;10.558;2022-10-13T09:18:07;17.40;99.90
3190;DHT22;1606;51.946;10.558;2022-10-13T09:20:37;17.40;99.90
3190;DHT22;1606;51.946;10.558;2022-10-13T09:23:11;17.40;99.90
3190;DHT22;1606;51.946;10.558;2022-10-13T09:25:44;17.40;99.90
3190;DHT22;1606;51.946;10.558;2022-10-13T09:28:26;17.40;99.90
3190;DHT22;1606;51.946;10.558;2022-10-13T09:31:01;17.30;99.90
3190;DHT22;1606;51.946;10.558;2022-10-13T09:33:34;17.30;99.90
3190;DHT22;1606;51.946;10.558;2022-10-13T09:36:08;17.40;99.90
3190;DHT22;1606;51.946;10.558;2022-10-13T09:38:42;17.40;99.90
3190;DHT22;1606;51.946;10.558;2022-10-13T09:41:14;17.30;99.90
3190;DHT22;1606;51.946;10.558;2022-10-13T09:43:57;17.30;99.90
3190;DHT22;1606;51.946;10.558;2022-10-13T09:46:28;17.50;99.90
3190;DHT22;1606;51.946;10.558;2022-10-13T09:49:02;17.60;99.90
3190;DHT22;1606;51.946;10.558;2022-10-13T09:51:35;17.90;99.90
3190;DHT22;1606;51.946;10.558;2022-10-13T09:54:04;17.80;99.90
3190;DHT22;1606;51.946;10.558;2022-10-13T09:56:37;17.90;99.90
3190;DHT22;1606;51.946;10.558;2022-10-13T09:59:19;18.10;99.90
3190;DHT22;1606;51.946;10.558;2022-10-13T10:01:49;18.20;99.90
3190;DHT22;1606;51.946;10.558;2022-10-13T10:04:23;18.40;99.90
3190;DHT22;1606;51.946;10.558;2022-10-13T10:06:54;18.50;99.90
3190;DHT22;1606;51.946;10.558;2022-10-13T10:09:32;18.30;99.90
3190;DHT22;1606;51.946;10.558;2022-10-13T10:12:04;18.40;99.90
3190;DHT22;1606;51.946;10.558;2022-10-13T10:14:34;18.40;99.90
3190;DHT22;1606;51.946;10.558;2022-10-13T10:17:11;18.40;99.90
3190;DHT22;1606;51.946;10.558;2022-10-13T10:19:47;18.40;99.90
3190;DHT22;1606;51.946;10.558;2022-10-13T10:22:24;18.30;99.90
3190;DHT22;1606;51.946;10.558;2022-10-13T10:25:04;18.50;99.90
3190;DHT22;1606;51.946;10.558;2022-10-13T10:27:37;19.00;99.90
3190;DHT22;1606;51.946;10.558;2022-10-13T10:30:14;19.30;99.20
3190;DHT22;1606;51.946;10.558;2022-10-13T10:32:46;19.40;98.90
3190;DHT22;1606;51.946;10.558;2022-10-13T10:35:23;19.60;99.00
3190;DHT22;1606;51.946;10.558;2022-10-13T10:38:07;19.70;98.70
3190;DHT22;1606;51.946;10.558;2022-10-13T10:40:47;19.70;98.40
3190;DHT22;1606;51.946;10.558;2022-10-13T10:46:16;19.60;97.20
3190;DHT22;1606;51.946;10.558;2022-10-13T10:48:46;19.80;97.90
3190;DHT22;1606;51.946;10.558;2022-10-13T10:51:16;20.00;97.90
3190;DHT22;1606;51.946;10.558;2022-10-13T10:53:55;20.20;97.10
3190;DHT22;1606;51.946;10.558;2022-10-13T10:56:30;20.30;97.00
3190;DHT22;1606;51.946;10.558;2022-10-13T10:59:06;20.40;96.30
3190;DHT22;1606;51.946;10.558;2022-10-13T11:01:44;20.60;96.20
3190;DHT22;1606;51.946;10.558;2022-10-13T11:04:35;20.50;95.80
3190;DHT22;1606;51.946;10.558;2022-10-13T11:07:10;20.50;96.30
3190;DHT22;1606;51.946;10.558;2022-10-13T11:10:02;20.50;96.10
3190;DHT22;1606;51.946;10.558;2022-10-13T11:12:46;20.60;96.60
3190;DHT22;1606;51.946;10.558;2022-10-13T11:15:20;20.70;95.70
3190;DHT22;1606;51.946;10.558;2022-10-13T11:17:49;20.50;95.10
3190;DHT22;1606;51.946;10.558;2022-10-13T11:20:48;20.50;95.30
3190;DHT22;1606;51.946;10.558;2022-10-13T11:23:31;20.80;96.30
3190;DHT22;1606;51.946;10.558;2022-10-13T11:26:27;20.80;95.10
3190;DHT22;1606;51.946;10.558;2022-10-13T11:28:57;20.60;95.10
3190;DHT22;1606;51.946;10.558;2022-10-13T11:31:29;20.70;95.50
3190;DHT22;1606;51.946;10.558;2022-10-13T11:34:01;20.70;95.30
3190;DHT22;1606;51.946;10.558;2022-10-13T11:36:35;20.50;94.90
3190;DHT22;1606;51.946;10.558;2022-10-13T11:39:39;20.60;95.40
3190;DHT22;1606;51.946;10.558;2022-10-13T11:42:24;20.80;95.20
3190;DHT22;1606;51.946;10.558;2022-10-13T11:44:58;20.90;94.80
3190;DHT22;1606;51.946;10.558;2022-10-13T11:47:52;21.00;94.80
3190;DHT22;1606;51.946;10.558;2022-10-13T11:50:28;21.00;94.70
3190;DHT22;1606;51.946;10.558;2022-10-13T11:53:11;21.10;94.60
3190;DHT22;1606;51.946;10.558;2022-10-13T11:55:46;21.10;94.70
3190;DHT22;1606;51.946;10.558;2022-10-13T11:58:19;20.80;94.20
3190;DHT22;1606;51.946;10.558;2022-10-13T12:00:52;20.60;95.40
3190;DHT22;1606;51.946;10.558;2022-10-13T12:03:22;20.70;95.20
3190;DHT22;1606;51.946;10.558;2022-10-13T12:05:51;20.80;94.80
3190;DHT22;1606;51.946;10.558;2022-10-13T12:08:20;20.90;94.90
3190;DHT22;1606;51.946;10.558;2022-10-13T12:10:51;20.90;94.90
3190;DHT22;1606;51.946;10.558;2022-10-13T12:13:24;20.80;94.80
3190;DHT22;1606;51.946;10.558;2022-10-13T12:15:57;21.00;94.50
3190;DHT22;1606;51.946;10.558;2022-10-13T12:18:27;20.90;94.80
3190;DHT22;1606;51.946;10.558;2022-10-13T12:21:01;20.90;94.20
3190;DHT22;1606;51.946;10.558;2022-10-13T12:23:31;20.60;94.80
3190;DHT22;1606;51.946;10.558;2022-10-13T12:25:59;20.40;95.00
3190;DHT22;1606;51.946;10.558;2022-10-13T12:28:42;20.50;95.50
3190;DHT22;1606;51.946;10.558;2022-10-13T12:31:17;20.80;94.90
3190;DHT22;1606;51.946;10.558;2022-10-13T12:33:55;20.50;94.60
3190;DHT22;1606;51.946;10.558;2022-10-13T12:36:26;20.40;95.30
3190;DHT22;1606;51.946;10.558;2022-10-13T12:38:59;20.50;95.10
3190;DHT22;1606;51.946;10.558;2022-10-13T12:41:30;20.80;95.10
3190;DHT22;1606;51.946;10.558;2022-10-13T12:44:00;21.00;94.20
3190;DHT22;1606;51.946;10.558;2022-10-13T12:46:40;20.90;94.20
3190;DHT22;1606;51.946;10.558;2022-10-13T12:49:13;21.00;93.70
3190;DHT22;1606;51.946;10.558;2022-10-13T12:51:42;21.20;94.00
3190;DHT22;1606;51.946;10.558;2022-10-13T12:54:18;21.10;93.20
3190;DHT22;1606;51.946;10.558;2022-10-13T12:56:48;21.00;93.40
3190;DHT22;1606;51.946;10.558;2022-10-13T12:59:24;20.90;93.60
3190;DHT22;1606;51.946;10.558;2022-10-13T13:01:58;20.90;93.30
3190;DHT22;1606;51.946;10.558;2022-10-13T13:04:43;21.00;93.40
3190;DHT22;1606;51.946;10.558;2022-10-13T13:07:31;21.10;93.10
3190;DHT22;1606;51.946;10.558;2022-10-13T13:10:12;21.10;92.80
3190;DHT22;1606;51.946;10.558;2022-10-13T13:12:41;21.20;92.80
3190;DHT22;1606;51.946;10.558;2022-10-13T13:15:20;21.10;92.50
3190;DHT22;1606;51.946;10.558;2022-10-13T13:18:27;20.90;93.00
3190;DHT22;1606;51.946;10.558;2022-10-13T13:20:55;20.70;93.20
3190;DHT22;1606;51.946;10.558;2022-10-13T13:23:23;20.70;93.50
3190;DHT22;1606;51.946;10.558;2022-10-13T13:26:00;20.70;93.60
3190;DHT22;1606;51.946;10.558;2022-10-13T13:28:29;20.70;93.60
3190;DHT22;1606;51.946;10.558;2022-10-13T13:31:00;20.70;93.50
3190;DHT22;1606;51.946;10.558;2022-10-13T13:33:27;20.40;93.40
3190;DHT22;1606;51.946;10.558;2022-10-13T13:35:55;20.10;93.80
3190;DHT22;1606;51.946;10.558;2022-10-13T13:38:23;20.10;94.20
3190;DHT22;1606;51.946;10.558;2022-10-13T13:40:51;20.30;94.20
3190;DHT22;1606;51.946;10.558;2022-10-13T13:43:19;20.20;93.70
3190;DHT22;1606;51.946;10.558;2022-10-13T13:45:46;20.30;94.00
3190;DHT22;1606;51.946;10.558;2022-10-13T13:48:16;20.30;94.30
3190;DHT22;1606;51.946;10.558;2022-10-13T13:50:43;20.40;94.00
3190;DHT22;1606;51.946;10.558;2022-10-13T13:53:11;20.20;94.50
3190;DHT22;1606;51.946;10.558;2022-10-13T13:55:40;20.30;94.80
3190;DHT22;1606;51.946;10.558;2022-10-13T13:58:08;20.50;94.30
3190;DHT22;1606;51.946;10.558;2022-10-13T14:00:36;20.30;94.80
3190;DHT22;1606;51.946;10.558;2022-10-13T14:03:04;20.10;94.80
3190;DHT22;1606;51.946;10.558;2022-10-13T14:05:37;19.90;94.60
3190;DHT22;1606;51.946;10.558;2022-10-13T14:08:06;19.90;94.10
3190;DHT22;1606;51.946;10.558;2022-10-13T14:10:34;19.70;94.90
3190;DHT22;1606;51.946;10.558;2022-10-13T14:13:01;19.80;94.70
3190;DHT22;1606;51.946;10.558;2022-10-13T14:15:29;19.90;94.80
3190;DHT22;1606;51.946;10.558;2022-10-13T14:17:57;19.80;94.30
3190;DHT22;1606;51.946;10.558;2022-10-13T14:20:25;19.60;94.90
3190;DHT22;1606;51.946;10.558;2022-10-13T14:22:54;19.60;95.00
3190;DHT22;1606;51.946;10.558;2022-10-13T14:25:22;19.60;94.70
3190;DHT22;1606;51.946;10.558;2022-10-13T14:27:50;19.60;94.80
3190;DHT22;1606;51.946;10.558;2022-10-13T14:30:18;19.70;94.80
3190;DHT22;1606;51.946;10.558;2022-10-13T14:32:46;19.90;95.00
3190;DHT22;1606;51.946;10.558;2022-10-13T14:35:14;19.60;95.20
3190;DHT22;1606;51.946;10.558;2022-10-13T14:37:41;19.60;95.20
3190;DHT22;1606;51.946;10.558;2022-10-13T14:40:11;19.60;95.20
3190;DHT22;1606;51.946;10.558;2022-10-13T14:42:38;19.70;95.00
3190;DHT22;1606;51.946;10.558;2022-10-13T14:45:08;19.90;95.00
3190;DHT22;1606;51.946;10.558;2022-10-13T14:47:38;19.90;94.80
3190;DHT22;1606;51.946;10.558;2022-10-13T14:50:07;19.90;95.10
3190;DHT22;1606;51.946;10.558;2022-10-13T14:52:35;19.60;95.20
3190;DHT22;1606;51.946;10.558;2022-10-13T14:55:03;19.60;95.50
3190;DHT22;1606;51.946;10.558;2022-10-13T14:57:32;19.60;95.30
3190;DHT22;1606;51.946;10.558;2022-10-13T15:00:00;19.50;95.30
3190;DHT22;1606;51.946;10.558;2022-10-13T15:02:29;19.40;95.20
3190;DHT22;1606;51.946;10.558;2022-10-13T15:04:56;19.30;95.50
3190;DHT22;1606;51.946;10.558;2022-10-13T15:07:24;19.10;95.60
3190;DHT22;1606;51.946;10.558;2022-10-13T15:09:52;18.90;95.30
3190;DHT22;1606;51.946;10.558;2022-10-13T15:12:32;18.80;95.60
3190;DHT22;1606;51.946;10.558;2022-10-13T15:15:00;18.90;96.00
3190;DHT22;1606;51.946;10.558;2022-10-13T15:17:29;19.00;96.00
3190;DHT22;1606;51.946;10.558;2022-10-13T15:19:57;18.90;95.90
3190;DHT22;1606;51.946;10.558;2022-10-13T15:22:25;18.90;96.30
3190;DHT22;1606;51.946;10.558;2022-10-13T15:24:52;19.10;96.20
3190;DHT22;1606;51.946;10.558;2022-10-13T15:27:20;19.40;96.00
3190;DHT22;1606;51.946;10.558;2022-10-13T15:29:50;19.30;96.20
3190;DHT22;1606;51.946;10.558;2022-10-13T15:32:17;19.40;96.20
3190;DHT22;1606;51.946;10.558;2022-10-13T15:34:46;19.50;96.10
3190;DHT22;1606;51.946;10.558;2022-10-13T15:37:14;19.40;96.20
3190;DHT22;1606;51.946;10.558;2022-10-13T15:39:42;19.50;96.30
3190;DHT22;1606;51.946;10.558;2022-10-13T15:42:11;19.30;96.40
3190;DHT22;1606;51.946;10.558;2022-10-13T15:44:39;19.30;96.40
3190;DHT22;1606;51.946;10.558;2022-10-13T15:47:28;19.20;96.60
3190;DHT22;1606;51.946;10.558;2022-10-13T15:49:56;19.00;97.00
3190;DHT22;1606;51.946;10.558;2022-10-13T15:52:24;19.00;97.10
3190;DHT22;1606;51.946;10.558;2022-10-13T15:54:59;19.10;97.40
3190;DHT22;1606;51.946;10.558;2022-10-13T15:57:27;19.10;97.10
3190;DHT22;1606;51.946;10.558;2022-10-13T15:59:55;19.10;97.30
3190;DHT22;1606;51.946;10.558;2022-10-13T16:02:22;19.10;97.30
3190;DHT22;1606;51.946;10.558;2022-10-13T16:04:52;19.10;97.50
3190;DHT22;1606;51.946;10.558;2022-10-13T16:07:19;19.20;97.50
3190;DHT22;1606;51.946;10.558;2022-10-13T16:09:47;19.10;97.70
3190;DHT22;1606;51.946;10.558;2022-10-13T16:12:15;19.10;97.90
3190;DHT22;1606;51.946;10.558;2022-10-13T16:14:44;19.00;98.20
3190;DHT22;1606;51.946;10.558;2022-10-13T16:17:12;18.90;98.50
3190;DHT22;1606;51.946;10.558;2022-10-13T16:19:39;18.90;98.60